Time,TemperatureF,DewpointF,PressureIn,WindDirection,WindDirectionDegrees,WindSpeedMPH,WindSpeedGustMPH,Humidity,HourlyPrecipIn,Conditions,Clouds,dailyrainin,SoftwareType,DateUTC
2013-03-30 00:03:00,45.3,42.3,30.05,NNW,337,0.0,-999.0,89,-99.99,,,0.00,Acu-Link.com,2013-03-30 04:03:00,
2013-03-30 00:18:00,45.3,42.3,30.06,North,0,2.2,-999.0,89,-99.99,,,0.00,Acu-Link.com,2013-03-30 04:18:00,
2013-03-30 00:33:00,45.3,42.5,30.05,NNW,337,1.7,-999.0,90,-99.99,,,0.00,Acu-Link.com,2013-03-30 04:33:00,
2013-03-30 00:48:00,45.1,42.6,30.04,ESE,112,0.0,-999.0,91,-99.99,,,0.00,Acu-Link.com,2013-03-30 04:48:00,
2013-03-30 01:04:00,45.0,42.5,30.03,WNW,292,2.2,-999.0,91,-99.99,,,0.00,Acu-Link.com,2013-03-30 05:04:00,
2013-03-30 01:19:00,45.0,42.5,30.03,SW,225,0.0,-999.0,91,-99.99,,,0.00,Acu-Link.com,2013-03-30 05:19:00,
2013-03-30 01:34:00,45.0,42.8,30.04,NNE,22,4.7,-999.0,92,-99.99,,,0.00,Acu-Link.com,2013-03-30 05:34:00,
2013-03-30 01:49:00,45.0,42.8,30.03,ESE,112,0.0,-999.0,92,-99.99,,,0.00,Acu-Link.com,2013-03-30 05:49:00,
2013-03-30 02:04:00,45.0,43.1,30.03,NW,315,1.7,-999.0,93,-99.99,,,0.00,Acu-Link.com,2013-03-30 06:04:00,
2013-03-30 02:20:00,44.8,42.9,30.04,ESE,112,1.7,-999.0,93,-99.99,,,0.00,Acu-Link.com,2013-03-30 06:20:00,
2013-03-30 02:35:00,44.8,42.9,30.04,North,0,0.0,-999.0,93,-99.99,,,0.00,Acu-Link.com,2013-03-30 06:35:00,
2013-03-30 02:50:00,44.8,42.9,30.03,ENE,67,0.0,-999.0,93,-99.99,,,0.01,Acu-Link.com,2013-03-30 06:50:00,
2013-03-30 03:06:00,44.8,44.3,30.03,West,270,1.1,-999.0,98,-99.99,,,0.01,Acu-Link.com,2013-03-30 07:06:00,
2013-03-30 03:36:00,44.6,44.1,30.02,NE,45,1.7,-999.0,98,-99.99,,,0.01,Acu-Link.com,2013-03-30 07:36:00,
2013-03-30 03:52:00,44.4,43.9,30.02,NNW,337,2.2,-999.0,98,-99.99,,,0.01,Acu-Link.com,2013-03-30 07:52:00,
2013-03-30 04:07:00,44.2,43.7,30.01,ESE,112,0.0,-999.0,98,-99.99,,,0.01,Acu-Link.com,2013-03-30 08:07:00,
2013-03-30 04:22:00,44.2,43.7,30.02,ENE,67,0.0,-999.0,98,-99.99,,,0.01,Acu-Link.com,2013-03-30 08:22:00,
2013-03-30 04:37:00,43.7,43.2,30.01,NNW,337,0.0,-999.0,98,-99.99,,,0.01,Acu-Link.com,2013-03-30 08:37:00,
2013-03-30 04:52:00,43.7,43.2,30.01,NW,315,1.7,-999.0,98,-99.99,,,0.01,Acu-Link.com,2013-03-30 08:52:00,
2013-03-30 05:08:00,43.7,43.2,30.01,WNW,292,0.0,-999.0,98,-99.99,,,0.01,Acu-Link.com,2013-03-30 09:08:00,
2013-03-30 05:23:00,43.9,43.4,30.00,WNW,292,2.2,-999.0,98,-99.99,,,0.01,Acu-Link.com,2013-03-30 09:23:00,
2013-03-30 05:38:00,43.9,43.4,30.00,NNE,22,0.0,-999.0,98,-99.99,,,0.01,Acu-Link.com,2013-03-30 09:38:00,
2013-03-30 06:09:00,43.9,43.4,29.99,NW,315,2.2,-999.0,98,-99.99,,,0.01,Acu-Link.com,2013-03-30 10:09:00,
2013-03-30 06:24:00,43.9,43.4,30.00,WSW,247,1.1,-999.0,98,-99.99,,,0.01,Acu-Link.com,2013-03-30 10:24:00,
2013-03-30 06:39:00,43.9,43.4,30.00,West,270,0.0,-999.0,98,-99.99,,,0.01,Acu-Link.com,2013-03-30 10:39:00,
2013-03-30 06:54:00,44.1,43.6,30.01,West,270,2.2,-999.0,98,-99.99,,,0.01,Acu-Link.com,2013-03-30 10:54:00,
2013-03-30 07:10:00,44.1,43.6,30.00,SW,225,0.0,-999.0,98,-99.99,,,0.01,Acu-Link.com,2013-03-30 11:10:00,
2013-03-30 07:25:00,44.1,43.6,30.01,North,0,0.0,-999.0,98,-99.99,,,0.01,Acu-Link.com,2013-03-30 11:25:00,
2013-03-30 07:40:00,44.1,43.6,30.02,NW,315,2.2,-999.0,98,-99.99,,,0.01,Acu-Link.com,2013-03-30 11:40:00,
2013-03-30 07:55:00,44.4,43.9,30.01,ENE,67,2.2,-999.0,98,-99.99,,,0.01,Acu-Link.com,2013-03-30 11:55:00,
2013-03-30 08:26:00,44.6,44.1,30.03,ESE,112,0.0,-999.0,98,-99.99,,,0.01,Acu-Link.com,2013-03-30 12:26:00,
2013-03-30 08:41:00,45.0,44.5,30.02,NNW,337,2.7,-999.0,98,-99.99,,,0.01,Acu-Link.com,2013-03-30 12:41:00,
2013-03-30 08:57:00,45.0,43.4,30.03,WNW,292,1.1,-999.0,94,-99.99,,,0.01,Acu-Link.com,2013-03-30 12:57:00,
2013-03-30 09:12:00,45.1,43.5,30.03,WNW,292,2.2,-999.0,94,-99.99,,,0.01,Acu-Link.com,2013-03-30 13:12:00,
2013-03-30 09:27:00,45.5,43.6,30.03,NNW,337,1.7,-999.0,93,-99.99,,,0.01,Acu-Link.com,2013-03-30 13:27:00,
2013-03-30 09:43:00,46.2,44.0,30.04,NNE,22,1.7,-999.0,92,-99.99,,,0.01,Acu-Link.com,2013-03-30 13:43:00,
2013-03-30 09:58:00,46.6,44.1,30.03,NNE,22,1.7,-999.0,91,-99.99,,,0.01,Acu-Link.com,2013-03-30 13:58:00,
2013-03-30 10:13:00,47.5,44.4,30.02,SSE,157,1.7,-999.0,89,-99.99,,,0.01,Acu-Link.com,2013-03-30 14:13:00,
2013-03-30 10:28:00,47.7,44.3,30.02,ENE,67,2.2,-999.0,88,-99.99,,,0.01,Acu-Link.com,2013-03-30 14:28:00,
2013-03-30 10:44:00,47.8,44.4,30.03,East,90,2.7,-999.0,88,-99.99,,,0.01,Acu-Link.com,2013-03-30 14:44:00,
2013-03-30 10:59:00,48.4,45.0,30.03,East,90,3.7,-999.0,88,-99.99,,,0.01,Acu-Link.com,2013-03-30 14:59:00,
2013-03-30 11:14:00,48.6,45.2,30.02,North,0,1.7,-999.0,88,-99.99,,,0.01,Acu-Link.com,2013-03-30 15:14:00,
2013-03-30 11:30:00,49.6,45.6,30.02,WNW,292,1.7,-999.0,86,-99.99,,,0.01,Acu-Link.com,2013-03-30 15:30:00,
2013-03-30 11:45:00,50.5,45.8,30.02,NW,315,2.2,-999.0,84,-99.99,,,0.01,Acu-Link.com,2013-03-30 15:45:00,
2013-03-30 12:00:00,49.3,45.3,30.02,East,90,0.0,-999.0,86,-99.99,,,0.01,Acu-Link.com,2013-03-30 16:00:00,
2013-03-30 12:16:00,51.8,47.1,30.01,SSE,157,3.2,-999.0,84,-99.99,,,0.01,Acu-Link.com,2013-03-30 16:16:00,
2013-03-30 12:46:00,53.6,47.2,30.00,ESE,112,2.2,-999.0,79,-99.99,,,0.01,Acu-Link.com,2013-03-30 16:46:00,
2013-03-30 13:17:00,56.8,47.9,29.99,SSE,157,2.2,-999.0,72,-99.99,,,0.01,Acu-Link.com,2013-03-30 17:17:00,
2013-03-30 13:32:00,58.3,47.4,29.98,SSE,157,3.7,-999.0,67,-99.99,,,0.01,Acu-Link.com,2013-03-30 17:32:00,
2013-03-30 13:47:00,57.9,46.2,29.97,NNE,22,0.0,-999.0,65,-99.99,,,0.01,Acu-Link.com,2013-03-30 17:47:00,
2013-03-30 14:02:00,59.7,47.5,29.96,SE,135,3.7,-999.0,64,-99.99,,,0.01,Acu-Link.com,2013-03-30 18:02:00,
2013-03-30 14:18:00,59.7,47.1,29.94,WNW,292,0.0,-999.0,63,-99.99,,,0.01,Acu-Link.com,2013-03-30 18:18:00,
2013-03-30 14:33:00,61.0,46.6,29.94,NNW,337,1.7,-999.0,59,-99.99,,,0.01,Acu-Link.com,2013-03-30 18:33:00,
2013-03-30 14:48:00,62.4,46.0,29.93,SW,225,1.7,-999.0,55,-99.99,,,0.01,Acu-Link.com,2013-03-30 18:48:00,
2013-03-30 15:03:00,63.0,47.5,29.92,WNW,292,0.0,-999.0,57,-99.99,,,0.01,Acu-Link.com,2013-03-30 19:03:00,
2013-03-30 15:18:00,63.9,48.8,29.91,SE,135,2.2,-999.0,58,-99.99,,,0.01,Acu-Link.com,2013-03-30 19:18:00,
2013-03-30 15:33:00,63.1,48.1,29.90,ESE,112,1.1,-999.0,58,-99.99,,,0.01,Acu-Link.com,2013-03-30 19:33:00,
2013-03-30 15:48:00,64.2,48.2,29.89,WNW,292,2.2,-999.0,56,-99.99,,,0.01,Acu-Link.com,2013-03-30 19:48:00,
2013-03-30 16:03:00,63.3,46.9,29.89,West,270,1.7,-999.0,55,-99.99,,,0.01,Acu-Link.com,2013-03-30 20:03:00,
2013-03-30 16:19:00,64.0,47.5,29.88,ESE,112,0.0,-999.0,55,-99.99,,,0.01,Acu-Link.com,2013-03-30 20:19:00,
2013-03-30 16:34:00,64.6,48.5,29.88,NNE,22,2.7,-999.0,56,-99.99,,,0.01,Acu-Link.com,2013-03-30 20:34:00,
2013-03-30 16:49:00,64.8,48.2,29.87,West,270,1.7,-999.0,55,-99.99,,,0.01,Acu-Link.com,2013-03-30 20:49:00,
2013-03-30 17:04:00,63.7,47.7,29.86,ESE,112,2.2,-999.0,56,-99.99,,,0.01,Acu-Link.com,2013-03-30 21:04:00,
2013-03-30 17:19:00,63.9,48.4,29.85,ENE,67,1.7,-999.0,57,-99.99,,,0.01,Acu-Link.com,2013-03-30 21:19:00,
2013-03-30 17:35:00,63.3,48.7,29.85,East,90,0.0,-999.0,59,-99.99,,,0.01,Acu-Link.com,2013-03-30 21:35:00,
2013-03-30 17:50:00,63.5,47.5,29.85,NNW,337,0.0,-999.0,56,-99.99,,,0.01,Acu-Link.com,2013-03-30 21:50:00,
2013-03-30 18:05:00,64.9,47.9,29.85,NNW,337,2.7,-999.0,54,-99.99,,,0.01,Acu-Link.com,2013-03-30 22:05:00,
2013-03-30 18:21:00,64.4,47.4,29.85,West,270,1.7,-999.0,54,-99.99,,,0.01,Acu-Link.com,2013-03-30 22:21:00,
2013-03-30 18:36:00,62.4,47.9,29.86,SSW,202,2.2,-999.0,59,-99.99,,,0.01,Acu-Link.com,2013-03-30 22:36:00,
2013-03-30 18:51:00,61.3,48.6,29.87,South,180,4.2,-999.0,63,-99.99,,,0.01,Acu-Link.com,2013-03-30 22:51:00,
2013-03-30 19:07:00,58.5,51.7,29.88,West,270,3.2,-999.0,78,-99.99,,,0.02,Acu-Link.com,2013-03-30 23:07:00,
2013-03-30 19:22:00,56.8,52.7,29.88,SSE,157,0.0,-999.0,86,-99.99,,,0.03,Acu-Link.com,2013-03-30 23:22:00,
2013-03-30 19:37:00,55.9,52.7,29.87,SSW,202,0.0,-999.0,89,-99.99,,,0.08,Acu-Link.com,2013-03-30 23:37:00,
2013-03-30 19:52:00,55.4,52.2,29.86,NNW,337,0.0,-999.0,89,-99.99,,,0.10,Acu-Link.com,2013-03-30 23:52:00,
2013-03-30 20:08:00,55.0,52.4,29.86,SE,135,0.0,-999.0,91,-99.99,,,0.11,Acu-Link.com,2013-03-31 00:08:00,
2013-03-30 20:23:00,54.7,52.4,29.85,SSE,157,0.0,-999.0,92,-99.99,,,0.12,Acu-Link.com,2013-03-31 00:23:00,
2013-03-30 20:38:00,54.3,52.3,29.85,SSE,157,0.0,-999.0,93,-99.99,,,0.13,Acu-Link.com,2013-03-31 00:38:00,
2013-03-30 20:54:00,54.3,53.5,29.84,SSE,157,0.0,-999.0,97,-99.99,,,0.14,Acu-Link.com,2013-03-31 00:54:00,
2013-03-30 21:09:00,54.1,52.7,29.84,South,180,0.0,-999.0,95,-99.99,,,0.14,Acu-Link.com,2013-03-31 01:09:00,
2013-03-30 21:24:00,54.3,53.7,29.84,SE,135,2.7,-999.0,98,-99.99,,,0.14,Acu-Link.com,2013-03-31 01:24:00,
2013-03-30 21:40:00,54.3,53.7,29.84,SSW,202,0.0,-999.0,98,-99.99,,,0.16,Acu-Link.com,2013-03-31 01:40:00,
2013-03-30 21:55:00,54.5,53.9,29.84,SSE,157,1.1,-999.0,98,-99.99,,,0.16,Acu-Link.com,2013-03-31 01:55:00,
2013-03-30 22:10:00,54.7,54.1,29.83,SSW,202,0.0,-999.0,98,-99.99,,,0.18,Acu-Link.com,2013-03-31 02:10:00,
2013-03-30 22:25:00,54.9,54.3,29.83,SSE,157,0.0,-999.0,98,-99.99,,,0.22,Acu-Link.com,2013-03-31 02:25:00,
2013-03-30 22:40:00,54.9,54.3,29.83,SSW,202,0.0,-999.0,98,-99.99,,,0.24,Acu-Link.com,2013-03-31 02:40:00,
2013-03-30 23:11:00,55.0,54.4,29.83,SSE,157,1.7,-999.0,98,-99.99,,,0.32,Acu-Link.com,2013-03-31 03:11:00,
2013-03-30 23:26:00,55.0,54.4,29.83,SE,135,0.0,-999.0,98,-99.99,,,0.36,Acu-Link.com,2013-03-31 03:26:00,
2013-03-30 23:42:00,55.0,54.4,29.82,SSW,202,1.7,-999.0,98,-99.99,,,0.36,Acu-Link.com,2013-03-31 03:42:00,
2013-03-30 23:57:00,55.0,54.4,29.81,SSW,202,2.2,-999.0,98,-99.99,,,0.38,Acu-Link.com,2013-03-31 03:57:00,